sensor_id;sensor_type;location;lat;lon;timestamp;P1;durP1;ratioP1;P2;durP2;ratioP2
63050;SDS011;49136;47.416;19.402;2022-07-15T00:01:51;4.25;;;2.10;;
63050;SDS011;49136;47.416;19.402;2022-07-15T00:04:16;6.28;;;2.20;;
63050;SDS011;49136;47.416;19.402;2022-07-15T00:06:42;6.28;;;2.00;;
63050;SDS011;49136;47.416;19.402;2022-07-15T00:09:07;3.72;;;2.10;;
63050;SDS011;49136;47.416;19.402;2022-07-15T00:11:33;3.20;;;1.95;;
63050;SDS011;49136;47.416;19.402;2022-07-15T00:13:59;5.68;;;2.33;;
63050;SDS011;49136;47.416;19.402;2022-07-15T00:16:25;2.95;;;1.92;;
63050;SDS011;49136;47.416;19.402;2022-07-15T00:18:50;3.28;;;2.38;;
63050;SDS011;49136;47.416;19.402;2022-07-15T00:21:16;3.45;;;2.65;;
63050;SDS011;49136;47.416;19.402;2022-07-15T00:23:41;5.85;;;2.20;;
63050;SDS011;49136;47.416;19.402;2022-07-15T00:26:07;3.75;;;2.03;;
63050;SDS011;49136;47.416;19.402;2022-07-15T00:28:32;4.00;;;2.13;;
63050;SDS011;49136;47.416;19.402;2022-07-15T00:30:58;3.13;;;2.25;;
63050;SDS011;49136;47.416;19.402;2022-07-15T00:33:23;4.57;;;2.20;;
63050;SDS011;49136;47.416;19.402;2022-07-15T00:35:49;4.85;;;2.17;;
63050;SDS011;49136;47.416;19.402;2022-07-15T00:38:14;7.18;;;2.00;;
63050;SDS011;49136;47.416;19.402;2022-07-15T00:40:48;6.15;;;2.67;;
63050;SDS011;49136;47.416;19.402;2022-07-15T00:43:14;13.10;;;2.65;;
63050;SDS011;49136;47.416;19.402;2022-07-15T00:45:44;7.15;;;2.20;;
63050;SDS011;49136;47.416;19.402;2022-07-15T00:48:10;4.68;;;2.50;;
63050;SDS011;49136;47.416;19.402;2022-07-15T00:50:36;3.67;;;2.40;;
63050;SDS011;49136;47.416;19.402;2022-07-15T00:53:10;5.95;;;2.33;;
63050;SDS011;49136;47.416;19.402;2022-07-15T00:55:40;5.15;;;2.10;;
63050;SDS011;49136;47.416;19.402;2022-07-15T00:58:07;5.22;;;2.40;;
63050;SDS011;49136;47.416;19.402;2022-07-15T01:00:33;3.72;;;2.17;;
63050;SDS011;49136;47.416;19.402;2022-07-15T01:02:59;5.05;;;2.30;;
63050;SDS011;49136;47.416;19.402;2022-07-15T01:05:25;4.70;;;2.55;;
63050;SDS011;49136;47.416;19.402;2022-07-15T01:07:51;8.10;;;2.95;;
63050;SDS011;49136;47.416;19.402;2022-07-15T01:10:20;9.68;;;3.25;;
63050;SDS011;49136;47.416;19.402;2022-07-15T01:12:47;13.05;;;3.53;;
63050;SDS011;49136;47.416;19.402;2022-07-15T01:15:13;5.00;;;2.90;;
63050;SDS011;49136;47.416;19.402;2022-07-15T01:17:39;3.45;;;2.50;;
63050;SDS011;49136;47.416;19.402;2022-07-15T01:20:06;5.70;;;3.00;;
63050;SDS011;49136;47.416;19.402;2022-07-15T01:22:32;5.20;;;2.78;;
63050;SDS011;49136;47.416;19.402;2022-07-15T01:24:57;4.50;;;2.90;;
63050;SDS011;49136;47.416;19.402;2022-07-15T01:27:23;6.18;;;2.85;;
63050;SDS011;49136;47.416;19.402;2022-07-15T01:29:49;5.07;;;2.67;;
63050;SDS011;49136;47.416;19.402;2022-07-15T01:32:15;6.72;;;2.97;;
63050;SDS011;49136;47.416;19.402;2022-07-15T01:34:41;6.15;;;2.70;;
63050;SDS011;49136;47.416;19.402;2022-07-15T01:37:07;4.47;;;2.75;;
63050;SDS011;49136;47.416;19.402;2022-07-15T01:39:32;4.13;;;2.60;;
63050;SDS011;49136;47.416;19.402;2022-07-15T01:41:58;11.27;;;3.05;;
63050;SDS011;49136;47.416;19.402;2022-07-15T01:44:23;4.07;;;2.75;;
63050;SDS011;49136;47.416;19.402;2022-07-15T01:46:48;6.35;;;2.50;;
63050;SDS011;49136;47.416;19.402;2022-07-15T01:49:14;9.30;;;2.55;;
63050;SDS011;49136;47.416;19.402;2022-07-15T01:51:54;4.40;;;3.20;;
63050;SDS011;49136;47.416;19.402;2022-07-15T01:54:20;3.50;;;2.95;;
63050;SDS011;49136;47.416;19.402;2022-07-15T01:56:47;8.75;;;3.22;;
63050;SDS011;49136;47.416;19.402;2022-07-15T01:59:13;3.45;;;2.70;;
63050;SDS011;49136;47.416;19.402;2022-07-15T02:01:39;4.97;;;2.78;;
63050;SDS011;49136;47.416;19.402;2022-07-15T02:04:04;4.10;;;3.40;;
63050;SDS011;49136;47.416;19.402;2022-07-15T02:06:29;5.10;;;2.90;;
63050;SDS011;49136;47.416;19.402;2022-07-15T02:08:55;4.60;;;3.30;;
63050;SDS011;49136;47.416;19.402;2022-07-15T02:11:21;7.15;;;2.83;;
63050;SDS011;49136;47.416;19.402;2022-07-15T02:13:46;4.97;;;3.70;;
63050;SDS011;49136;47.416;19.402;2022-07-15T02:16:12;11.60;;;3.42;;
63050;SDS011;49136;47.416;19.402;2022-07-15T02:18:38;7.53;;;3.13;;
63050;SDS011;49136;47.416;19.402;2022-07-15T02:21:03;5.53;;;3.30;;
63050;SDS011;49136;47.416;19.402;2022-07-15T02:23:29;8.52;;;3.50;;
63050;SDS011;49136;47.416;19.402;2022-07-15T02:25:54;5.43;;;3.10;;
63050;SDS011;49136;47.416;19.402;2022-07-15T02:28:20;9.25;;;3.33;;
63050;SDS011;49136;47.416;19.402;2022-07-15T02:30:46;4.78;;;3.00;;
63050;SDS011;49136;47.416;19.402;2022-07-15T02:33:12;6.47;;;3.03;;
63050;SDS011;49136;47.416;19.402;2022-07-15T02:35:38;8.77;;;3.65;;
63050;SDS011;49136;47.416;19.402;2022-07-15T02:38:05;9.05;;;3.22;;
63050;SDS011;49136;47.416;19.402;2022-07-15T02:40:31;7.47;;;3.25;;
63050;SDS011;49136;47.416;19.402;2022-07-15T02:42:57;11.45;;;3.80;;
63050;SDS011;49136;47.416;19.402;2022-07-15T02:45:24;11.35;;;3.63;;
63050;SDS011;49136;47.416;19.402;2022-07-15T02:47:51;4.80;;;3.50;;
63050;SDS011;49136;47.416;19.402;2022-07-15T02:50:17;6.38;;;3.60;;
63050;SDS011;49136;47.416;19.402;2022-07-15T02:52:44;11.10;;;3.28;;
63050;SDS011;49136;47.416;19.402;2022-07-15T02:55:10;7.65;;;3.47;;
63050;SDS011;49136;47.416;19.402;2022-07-15T02:57:37;10.30;;;3.35;;
63050;SDS011;49136;47.416;19.402;2022-07-15T03:00:03;10.88;;;3.80;;
63050;SDS011;49136;47.416;19.402;2022-07-15T03:02:30;8.55;;;3.40;;
63050;SDS011;49136;47.416;19.402;2022-07-15T03:04:55;5.50;;;3.38;;
63050;SDS011;49136;47.416;19.402;2022-07-15T03:07:21;8.77;;;3.45;;
63050;SDS011;49136;47.416;19.402;2022-07-15T03:09:47;6.05;;;3.33;;
63050;SDS011;49136;47.416;19.402;2022-07-15T03:12:12;8.55;;;3.58;;
63050;SDS011;49136;47.416;19.402;2022-07-15T03:14:38;4.65;;;3.10;;
63050;SDS011;49136;47.416;19.402;2022-07-15T03:17:05;6.95;;;3.30;;
63050;SDS011;49136;47.416;19.402;2022-07-15T03:19:30;6.32;;;3.70;;
63050;SDS011;49136;47.416;19.402;2022-07-15T03:21:56;8.10;;;3.53;;
63050;SDS011;49136;47.416;19.402;2022-07-15T03:24:21;9.52;;;3.67;;
63050;SDS011;49136;47.416;19.402;2022-07-15T03:26:47;7.47;;;3.58;;
63050;SDS011;49136;47.416;19.402;2022-07-15T03:29:12;5.90;;;3.83;;
63050;SDS011;49136;47.416;19.402;2022-07-15T03:31:41;8.35;;;3.45;;
63050;SDS011;49136;47.416;19.402;2022-07-15T03:34:07;21.23;;;3.83;;
63050;SDS011;49136;47.416;19.402;2022-07-15T03:36:33;9.05;;;3.60;;
63050;SDS011;49136;47.416;19.402;2022-07-15T03:38:58;5.85;;;3.60;;
63050;SDS011;49136;47.416;19.402;2022-07-15T03:41:23;10.05;;;3.30;;
63050;SDS011;49136;47.416;19.402;2022-07-15T03:43:49;10.77;;;3.60;;
63050;SDS011;49136;47.416;19.402;2022-07-15T03:46:14;8.02;;;3.42;;
63050;SDS011;49136;47.416;19.402;2022-07-15T03:48:40;5.75;;;3.55;;
63050;SDS011;49136;47.416;19.402;2022-07-15T03:51:08;6.53;;;3.53;;
63050;SDS011;49136;47.416;19.402;2022-07-15T03:53:33;7.18;;;3.47;;
63050;SDS011;49136;47.416;19.402;2022-07-15T03:55:59;6.57;;;3.28;;
63050;SDS011;49136;47.416;19.402;2022-07-15T03:58:24;6.88;;;3.83;;
63050;SDS011;49136;47.416;19.402;2022-07-15T04:00:50;5.57;;;3.40;;
63050;SDS011;49136;47.416;19.402;2022-07-15T04:03:15;13.95;;;3.72;;
63050;SDS011;49136;47.416;19.402;2022-07-15T04:05:41;6.95;;;3.58;;
63050;SDS011;49136;47.416;19.402;2022-07-15T04:08:07;11.13;;;3.70;;
63050;SDS011;49136;47.416;19.402;2022-07-15T04:10:33;11.13;;;3.38;;
63050;SDS011;49136;47.416;19.402;2022-07-15T04:12:58;6.43;;;3.72;;
63050;SDS011;49136;47.416;19.402;2022-07-15T04:15:24;8.65;;;4.22;;
63050;SDS011;49136;47.416;19.402;2022-07-15T04:17:49;10.73;;;4.25;;
63050;SDS011;49136;47.416;19.402;2022-07-15T04:20:15;13.57;;;4.05;;
63050;SDS011;49136;47.416;19.402;2022-07-15T04:22:41;18.00;;;4.65;;
63050;SDS011;49136;47.416;19.402;2022-07-15T04:25:11;18.02;;;6.43;;
63050;SDS011;49136;47.416;19.402;2022-07-15T04:27:39;5.28;;;3.33;;
63050;SDS011;49136;47.416;19.402;2022-07-15T04:30:05;5.18;;;3.60;;
63050;SDS011;49136;47.416;19.402;2022-07-15T04:32:31;11.40;;;3.92;;
63050;SDS011;49136;47.416;19.402;2022-07-15T04:34:56;10.35;;;4.22;;
63050;SDS011;49136;47.416;19.402;2022-07-15T04:37:22;9.45;;;4.15;;
63050;SDS011;49136;47.416;19.402;2022-07-15T04:39:47;7.28;;;3.78;;
63050;SDS011;49136;47.416;19.402;2022-07-15T04:42:13;10.52;;;4.20;;
63050;SDS011;49136;47.416;19.402;2022-07-15T04:44:39;8.45;;;4.35;;
63050;SDS011;49136;47.416;19.402;2022-07-15T04:47:04;7.68;;;3.72;;
63050;SDS011;49136;47.416;19.402;2022-07-15T04:49:30;7.85;;;3.95;;
63050;SDS011;49136;47.416;19.402;2022-07-15T04:52:14;6.88;;;4.13;;
63050;SDS011;49136;47.416;19.402;2022-07-15T04:54:39;6.80;;;4.30;;
63050;SDS011;49136;47.416;19.402;2022-07-15T04:57:05;12.18;;;4.72;;
63050;SDS011;49136;47.416;19.402;2022-07-15T04:59:30;7.15;;;3.92;;
63050;SDS011;49136;47.416;19.402;2022-07-15T05:01:57;16.20;;;3.90;;
63050;SDS011;49136;47.416;19.402;2022-07-15T05:04:23;17.30;;;4.70;;
63050;SDS011;49136;47.416;19.402;2022-07-15T05:06:49;12.90;;;4.13;;
63050;SDS011;49136;47.416;19.402;2022-07-15T05:09:14;6.47;;;3.63;;
63050;SDS011;49136;47.416;19.402;2022-07-15T05:11:40;20.30;;;4.90;;
63050;SDS011;49136;47.416;19.402;2022-07-15T05:14:05;18.25;;;4.45;;
63050;SDS011;49136;47.416;19.402;2022-07-15T05:16:31;16.23;;;4.30;;
63050;SDS011;49136;47.416;19.402;2022-07-15T05:18:56;10.57;;;4.47;;
63050;SDS011;49136;47.416;19.402;2022-07-15T05:21:22;11.45;;;3.53;;
63050;SDS011;49136;47.416;19.402;2022-07-15T05:23:47;9.30;;;3.30;;
63050;SDS011;49136;47.416;19.402;2022-07-15T05:26:13;5.40;;;2.20;;
63050;SDS011;49136;47.416;19.402;2022-07-15T05:28:38;15.27;;;2.60;;
63050;SDS011;49136;47.416;19.402;2022-07-15T05:31:04;3.83;;;2.22;;
63050;SDS011;49136;47.416;19.402;2022-07-15T05:33:30;9.25;;;2.42;;
63050;SDS011;49136;47.416;19.402;2022-07-15T05:35:56;4.90;;;2.83;;
63050;SDS011;49136;47.416;19.402;2022-07-15T05:38:21;4.82;;;2.55;;
63050;SDS011;49136;47.416;19.402;2022-07-15T05:40:48;2.05;;;1.85;;
63050;SDS011;49136;47.416;19.402;2022-07-15T05:43:13;3.33;;;1.92;;
63050;SDS011;49136;47.416;19.402;2022-07-15T05:45:38;2.40;;;1.92;;
63050;SDS011;49136;47.416;19.402;2022-07-15T05:48:04;4.57;;;2.10;;
63050;SDS011;49136;47.416;19.402;2022-07-15T05:50:30;6.32;;;2.20;;
63050;SDS011;49136;47.416;19.402;2022-07-15T05:52:55;2.65;;;2.25;;
63050;SDS011;49136;47.416;19.402;2022-07-15T05:55:21;3.10;;;1.77;;
63050;SDS011;49136;47.416;19.402;2022-07-15T05:57:46;1.75;;;1.52;;
63050;SDS011;49136;47.416;19.402;2022-07-15T06:00:12;4.75;;;2.03;;
63050;SDS011;49136;47.416;19.402;2022-07-15T06:02:38;7.20;;;1.80;;
63050;SDS011;49136;47.416;19.402;2022-07-15T06:05:04;2.20;;;1.90;;
63050;SDS011;49136;47.416;19.402;2022-07-15T06:07:30;4.60;;;2.25;;
63050;SDS011;49136;47.416;19.402;2022-07-15T06:09:55;3.13;;;2.10;;
63050;SDS011;49136;47.416;19.402;2022-07-15T06:12:20;4.28;;;2.08;;
63050;SDS011;49136;47.416;19.402;2022-07-15T06:14:46;2.63;;;2.17;;
63050;SDS011;49136;47.416;19.402;2022-07-15T06:17:11;5.05;;;2.30;;
63050;SDS011;49136;47.416;19.402;2022-07-15T06:19:37;6.80;;;2.47;;
63050;SDS011;49136;47.416;19.402;2022-07-15T06:22:02;4.65;;;2.55;;
63050;SDS011;49136;47.416;19.402;2022-07-15T06:24:28;3.42;;;2.47;;
63050;SDS011;49136;47.416;19.402;2022-07-15T06:26:54;5.63;;;2.63;;
63050;SDS011;49136;47.416;19.402;2022-07-15T06:29:20;8.52;;;2.60;;
63050;SDS011;49136;47.416;19.402;2022-07-15T06:31:45;11.32;;;3.42;;
63050;SDS011;49136;47.416;19.402;2022-07-15T06:34:11;5.05;;;2.50;;
63050;SDS011;49136;47.416;19.402;2022-07-15T06:36:36;6.05;;;2.92;;
63050;SDS011;49136;47.416;19.402;2022-07-15T06:39:02;10.88;;;4.35;;
63050;SDS011;49136;47.416;19.402;2022-07-15T06:41:28;6.63;;;2.92;;
63050;SDS011;49136;47.416;19.402;2022-07-15T06:43:54;6.32;;;3.30;;
63050;SDS011;49136;47.416;19.402;2022-07-15T06:46:20;5.30;;;2.65;;
63050;SDS011;49136;47.416;19.402;2022-07-15T06:48:45;6.28;;;2.47;;
63050;SDS011;49136;47.416;19.402;2022-07-15T06:51:11;5.07;;;3.08;;
63050;SDS011;49136;47.416;19.402;2022-07-15T06:53:36;4.20;;;3.28;;
63050;SDS011;49136;47.416;19.402;2022-07-15T06:56:02;3.55;;;2.80;;
63050;SDS011;49136;47.416;19.402;2022-07-15T06:58:27;4.70;;;2.90;;
63050;SDS011;49136;47.416;19.402;2022-07-15T07:00:53;4.38;;;3.03;;
63050;SDS011;49136;47.416;19.402;2022-07-15T07:03:18;5.38;;;3.63;;
63050;SDS011;49136;47.416;19.402;2022-07-15T07:05:56;6.10;;;3.60;;
63050;SDS011;49136;47.416;19.402;2022-07-15T07:08:22;6.45;;;3.60;;
63050;SDS011;49136;47.416;19.402;2022-07-15T07:10:48;6.20;;;3.95;;
63050;SDS011;49136;47.416;19.402;2022-07-15T07:13:13;7.32;;;3.95;;
63050;SDS011;49136;47.416;19.402;2022-07-15T07:15:39;10.27;;;4.55;;
63050;SDS011;49136;47.416;19.402;2022-07-15T07:18:04;5.78;;;3.85;;
63050;SDS011;49136;47.416;19.402;2022-07-15T07:20:30;7.55;;;4.38;;
63050;SDS011;49136;47.416;19.402;2022-07-15T07:22:55;7.03;;;3.70;;
63050;SDS011;49136;47.416;19.402;2022-07-15T07:25:22;9.98;;;4.55;;
63050;SDS011;49136;47.416;19.402;2022-07-15T07:27:48;6.07;;;4.60;;
63050;SDS011;49136;47.416;19.402;2022-07-15T07:30:13;5.90;;;4.10;;
63050;SDS011;49136;47.416;19.402;2022-07-15T07:32:48;9.40;;;4.82;;
63050;SDS011;49136;47.416;19.402;2022-07-15T07:35:15;15.25;;;4.90;;
63050;SDS011;49136;47.416;19.402;2022-07-15T07:37:41;6.20;;;4.75;;
63050;SDS011;49136;47.416;19.402;2022-07-15T07:40:06;8.25;;;4.57;;
63050;SDS011;49136;47.416;19.402;2022-07-15T07:42:33;6.38;;;4.78;;
63050;SDS011;49136;47.416;19.402;2022-07-15T07:44:59;6.25;;;4.50;;
63050;SDS011;49136;47.416;19.402;2022-07-15T07:47:26;6.32;;;4.72;;
63050;SDS011;49136;47.416;19.402;2022-07-15T07:49:51;5.40;;;4.05;;
63050;SDS011;49136;47.416;19.402;2022-07-15T07:52:17;7.70;;;4.65;;
63050;SDS011;49136;47.416;19.402;2022-07-15T07:54:42;6.15;;;3.95;;
63050;SDS011;49136;47.416;19.402;2022-07-15T07:57:09;5.85;;;4.10;;
63050;SDS011;49136;47.416;19.402;2022-07-15T07:59:35;6.88;;;4.20;;
63050;SDS011;49136;47.416;19.402;2022-07-15T08:02:01;6.72;;;4.60;;
63050;SDS011;49136;47.416;19.402;2022-07-15T08:04:29;8.30;;;4.10;;
63050;SDS011;49136;47.416;19.402;2022-07-15T08:06:54;5.88;;;4.00;;
63050;SDS011;49136;47.416;19.402;2022-07-15T08:09:20;6.28;;;4.07;;
63050;SDS011;49136;47.416;19.402;2022-07-15T08:11:45;6.00;;;4.45;;
63050;SDS011;49136;47.416;19.402;2022-07-15T08:14:10;5.38;;;4.05;;
63050;SDS011;49136;47.416;19.402;2022-07-15T08:16:36;7.63;;;4.50;;
63050;SDS011;49136;47.416;19.402;2022-07-15T08:19:02;8.13;;;4.38;;
63050;SDS011;49136;47.416;19.402;2022-07-15T08:21:27;7.18;;;4.78;;
63050;SDS011;49136;47.416;19.402;2022-07-15T08:23:53;7.82;;;4.43;;
63050;SDS011;49136;47.416;19.402;2022-07-15T08:26:20;6.40;;;4.35;;
63050;SDS011;49136;47.416;19.402;2022-07-15T08:28:48;5.90;;;4.40;;
63050;SDS011;49136;47.416;19.402;2022-07-15T08:31:14;6.47;;;5.05;;
63050;SDS011;49136;47.416;19.402;2022-07-15T08:33:41;7.32;;;4.90;;
63050;SDS011;49136;47.416;19.402;2022-07-15T08:36:07;11.32;;;4.72;;
63050;SDS011;49136;47.416;19.402;2022-07-15T08:38:32;7.93;;;4.75;;
63050;SDS011;49136;47.416;19.402;2022-07-15T08:40:57;10.13;;;4.90;;
63050;SDS011;49136;47.416;19.402;2022-07-15T08:43:23;9.77;;;4.90;;
63050;SDS011;49136;47.416;19.402;2022-07-15T08:45:48;5.60;;;4.55;;
63050;SDS011;49136;47.416;19.402;2022-07-15T08:48:14;10.13;;;4.97;;
63050;SDS011;49136;47.416;19.402;2022-07-15T08:50:42;7.93;;;4.68;;
63050;SDS011;49136;47.416;19.402;2022-07-15T08:53:08;6.32;;;4.65;;
63050;SDS011;49136;47.416;19.402;2022-07-15T08:55:34;7.60;;;4.55;;
63050;SDS011;49136;47.416;19.402;2022-07-15T08:57:59;6.53;;;4.97;;
63050;SDS011;49136;47.416;19.402;2022-07-15T09:00:25;6.68;;;4.90;;
63050;SDS011;49136;47.416;19.402;2022-07-15T09:02:55;9.45;;;4.90;;
63050;SDS011;49136;47.416;19.402;2022-07-15T09:05:31;8.90;;;5.22;;
63050;SDS011;49136;47.416;19.402;2022-07-15T09:08:08;14.68;;;4.78;;
63050;SDS011;49136;47.416;19.402;2022-07-15T09:13:21;6.00;;;5.05;;
63050;SDS011;49136;47.416;19.402;2022-07-15T09:15:47;6.82;;;4.95;;
63050;SDS011;49136;47.416;19.402;2022-07-15T09:18:14;7.78;;;4.53;;
63050;SDS011;49136;47.416;19.402;2022-07-15T09:20:42;6.25;;;4.90;;
63050;SDS011;49136;47.416;19.402;2022-07-15T09:23:09;8.35;;;4.93;;
63050;SDS011;49136;47.416;19.402;2022-07-15T09:25:36;6.13;;;5.00;;
63050;SDS011;49136;47.416;19.402;2022-07-15T09:28:03;9.73;;;5.18;;
63050;SDS011;49136;47.416;19.402;2022-07-15T09:30:34;12.70;;;5.40;;
63050;SDS011;49136;47.416;19.402;2022-07-15T09:33:21;8.35;;;5.38;;
63050;SDS011;49136;47.416;19.402;2022-07-15T09:38:50;7.97;;;5.43;;
63050;SDS011;49136;47.416;19.402;2022-07-15T09:41:40;6.93;;;4.63;;
63050;SDS011;49136;47.416;19.402;2022-07-15T09:44:15;8.13;;;5.03;;
63050;SDS011;49136;47.416;19.402;2022-07-15T09:47:02;10.18;;;4.90;;
63050;SDS011;49136;47.416;19.402;2022-07-15T09:51:58;8.05;;;5.25;;
63050;SDS011;49136;47.416;19.402;2022-07-15T09:56:55;8.82;;;5.82;;
63050;SDS011;49136;47.416;19.402;2022-07-15T09:59:22;16.92;;;7.88;;
63050;SDS011;49136;47.416;19.402;2022-07-15T10:01:49;12.50;;;8.00;;
63050;SDS011;49136;47.416;19.402;2022-07-15T10:04:16;9.65;;;5.82;;
63050;SDS011;49136;47.416;19.402;2022-07-15T10:06:46;8.18;;;6.13;;
63050;SDS011;49136;47.416;19.402;2022-07-15T10:09:13;7.63;;;5.88;;
63050;SDS011;49136;47.416;19.402;2022-07-15T10:11:41;9.15;;;5.88;;
63050;SDS011;49136;47.416;19.402;2022-07-15T10:17:00;9.52;;;7.20;;
63050;SDS011;49136;47.416;19.402;2022-07-15T10:30:39;9.05;;;6.35;;
63050;SDS011;49136;47.416;19.402;2022-07-15T10:43:37;9.80;;;6.25;;
63050;SDS011;49136;47.416;19.402;2022-07-15T10:48:47;10.43;;;6.50;;
63050;SDS011;49136;47.416;19.402;2022-07-15T10:54:03;14.10;;;6.65;;
63050;SDS011;49136;47.416;19.402;2022-07-15T10:56:33;12.25;;;7.15;;
63050;SDS011;49136;47.416;19.402;2022-07-15T11:01:37;12.60;;;7.00;;
63050;SDS011;49136;47.416;19.402;2022-07-15T11:04:20;10.07;;;6.68;;
63050;SDS011;49136;47.416;19.402;2022-07-15T11:14:59;9.10;;;6.75;;
63050;SDS011;49136;47.416;19.402;2022-07-15T11:19:55;8.18;;;6.22;;
63050;SDS011;49136;47.416;19.402;2022-07-15T11:22:22;10.95;;;6.72;;
63050;SDS011;49136;47.416;19.402;2022-07-15T11:24:49;14.30;;;6.55;;
63050;SDS011;49136;47.416;19.402;2022-07-15T11:27:15;11.15;;;6.80;;
63050;SDS011;49136;47.416;19.402;2022-07-15T11:29:41;9.23;;;6.38;;
63050;SDS011;49136;47.416;19.402;2022-07-15T11:32:07;17.35;;;7.10;;
63050;SDS011;49136;47.416;19.402;2022-07-15T11:34:41;8.68;;;5.80;;
63050;SDS011;49136;47.416;19.402;2022-07-15T11:37:11;13.35;;;7.28;;
63050;SDS011;49136;47.416;19.402;2022-07-15T11:39:43;9.43;;;6.75;;
63050;SDS011;49136;47.416;19.402;2022-07-15T11:42:17;12.63;;;6.78;;
63050;SDS011;49136;47.416;19.402;2022-07-15T11:45:02;8.25;;;6.55;;
63050;SDS011;49136;47.416;19.402;2022-07-15T11:47:28;8.65;;;5.75;;
63050;SDS011;49136;47.416;19.402;2022-07-15T11:49:57;10.25;;;6.35;;
63050;SDS011;49136;47.416;19.402;2022-07-15T11:52:25;12.23;;;6.80;;
63050;SDS011;49136;47.416;19.402;2022-07-15T11:54:51;16.40;;;6.75;;
63050;SDS011;49136;47.416;19.402;2022-07-15T11:57:16;11.00;;;6.75;;
63050;SDS011;49136;47.416;19.402;2022-07-15T11:59:55;9.23;;;6.90;;
63050;SDS011;49136;47.416;19.402;2022-07-15T12:02:23;13.82;;;6.20;;
63050;SDS011;49136;47.416;19.402;2022-07-15T12:04:51;12.07;;;6.57;;
63050;SDS011;49136;47.416;19.402;2022-07-15T12:07:34;12.82;;;7.13;;
63050;SDS011;49136;47.416;19.402;2022-07-15T12:10:05;18.35;;;8.75;;
63050;SDS011;49136;47.416;19.402;2022-07-15T12:12:31;16.88;;;6.68;;
63050;SDS011;49136;47.416;19.402;2022-07-15T12:14:57;10.52;;;6.82;;
63050;SDS011;49136;47.416;19.402;2022-07-15T12:17:23;15.63;;;7.57;;
63050;SDS011;49136;47.416;19.402;2022-07-15T12:19:50;8.27;;;5.95;;
63050;SDS011;49136;47.416;19.402;2022-07-15T12:22:17;15.60;;;6.75;;
63050;SDS011;49136;47.416;19.402;2022-07-15T12:24:43;8.95;;;6.35;;
63050;SDS011;49136;47.416;19.402;2022-07-15T12:27:12;7.78;;;6.20;;
63050;SDS011;49136;47.416;19.402;2022-07-15T12:29:38;9.73;;;6.05;;
63050;SDS011;49136;47.416;19.402;2022-07-15T12:32:06;9.95;;;5.90;;
63050;SDS011;49136;47.416;19.402;2022-07-15T12:35:08;8.02;;;5.82;;
63050;SDS011;49136;47.416;19.402;2022-07-15T12:40:03;13.35;;;5.10;;
63050;SDS011;49136;47.416;19.402;2022-07-15T12:42:37;9.80;;;5.50;;
63050;SDS011;49136;47.416;19.402;2022-07-15T12:45:13;9.20;;;5.22;;
63050;SDS011;49136;47.416;19.402;2022-07-15T12:50:33;9.88;;;5.35;;
63050;SDS011;49136;47.416;19.402;2022-07-15T12:53:20;8.35;;;5.18;;
63050;SDS011;49136;47.416;19.402;2022-07-15T12:55:49;8.57;;;4.97;;
63050;SDS011;49136;47.416;19.402;2022-07-15T12:58:17;11.07;;;5.40;;
63050;SDS011;49136;47.416;19.402;2022-07-15T13:00:48;6.78;;;4.18;;
63050;SDS011;49136;47.416;19.402;2022-07-15T13:03:18;13.52;;;5.18;;
63050;SDS011;49136;47.416;19.402;2022-07-15T13:05:45;10.70;;;4.13;;
63050;SDS011;49136;47.416;19.402;2022-07-15T13:08:13;10.60;;;3.97;;
63050;SDS011;49136;47.416;19.402;2022-07-15T13:10:40;8.27;;;3.53;;
63050;SDS011;49136;47.416;19.402;2022-07-15T13:13:08;17.35;;;3.63;;
63050;SDS011;49136;47.416;19.402;2022-07-15T13:15:34;4.00;;;3.13;;
63050;SDS011;49136;47.416;19.402;2022-07-15T13:18:00;5.65;;;2.78;;
63050;SDS011;49136;47.416;19.402;2022-07-15T13:20:25;4.18;;;2.58;;
63050;SDS011;49136;47.416;19.402;2022-07-15T13:22:51;5.32;;;2.35;;
63050;SDS011;49136;47.416;19.402;2022-07-15T13:25:17;10.70;;;2.75;;
63050;SDS011;49136;47.416;19.402;2022-07-15T13:27:44;6.18;;;2.20;;
63050;SDS011;49136;47.416;19.402;2022-07-15T13:30:10;5.95;;;2.55;;
63050;SDS011;49136;47.416;19.402;2022-07-15T13:32:36;3.17;;;2.05;;
63050;SDS011;49136;47.416;19.402;2022-07-15T13:35:02;7.72;;;2.30;;
63050;SDS011;49136;47.416;19.402;2022-07-15T13:37:28;3.88;;;2.10;;
63050;SDS011;49136;47.416;19.402;2022-07-15T13:39:54;4.63;;;2.00;;
63050;SDS011;49136;47.416;19.402;2022-07-15T13:42:19;5.20;;;2.50;;
63050;SDS011;49136;47.416;19.402;2022-07-15T13:44:44;3.33;;;1.65;;
63050;SDS011;49136;47.416;19.402;2022-07-15T13:47:10;4.13;;;1.95;;
63050;SDS011;49136;47.416;19.402;2022-07-15T13:49:35;3.33;;;1.90;;
63050;SDS011;49136;47.416;19.402;2022-07-15T13:52:20;3.53;;;1.75;;
63050;SDS011;49136;47.416;19.402;2022-07-15T13:54:45;4.10;;;1.83;;
63050;SDS011;49136;47.416;19.402;2022-07-15T13:57:10;6.93;;;2.20;;
63050;SDS011;49136;47.416;19.402;2022-07-15T13:59:36;6.45;;;2.00;;
63050;SDS011;49136;47.416;19.402;2022-07-15T14:02:01;5.45;;;2.42;;
63050;SDS011;49136;47.416;19.402;2022-07-15T14:04:29;2.78;;;2.13;;
63050;SDS011;49136;47.416;19.402;2022-07-15T14:06:55;7.05;;;2.33;;
63050;SDS011;49136;47.416;19.402;2022-07-15T14:09:21;8.00;;;1.92;;
63050;SDS011;49136;47.416;19.402;2022-07-15T14:11:46;3.95;;;1.88;;
63050;SDS011;49136;47.416;19.402;2022-07-15T14:14:11;6.38;;;1.88;;
63050;SDS011;49136;47.416;19.402;2022-07-15T14:16:37;3.38;;;1.83;;
63050;SDS011;49136;47.416;19.402;2022-07-15T14:19:02;4.95;;;1.75;;
63050;SDS011;49136;47.416;19.402;2022-07-15T14:21:27;5.45;;;2.25;;
63050;SDS011;49136;47.416;19.402;2022-07-15T14:23:53;5.20;;;2.13;;
63050;SDS011;49136;47.416;19.402;2022-07-15T14:26:18;3.05;;;1.58;;
63050;SDS011;49136;47.416;19.402;2022-07-15T14:28:44;2.80;;;1.75;;
63050;SDS011;49136;47.416;19.402;2022-07-15T14:31:10;3.47;;;2.03;;
63050;SDS011;49136;47.416;19.402;2022-07-15T14:33:41;3.70;;;2.00;;
63050;SDS011;49136;47.416;19.402;2022-07-15T14:36:08;3.25;;;1.83;;
63050;SDS011;49136;47.416;19.402;2022-07-15T14:38:37;3.97;;;1.55;;
63050;SDS011;49136;47.416;19.402;2022-07-15T14:41:03;7.18;;;2.22;;
63050;SDS011;49136;47.416;19.402;2022-07-15T14:43:29;5.10;;;2.50;;
63050;SDS011;49136;47.416;19.402;2022-07-15T14:45:55;3.97;;;1.90;;
63050;SDS011;49136;47.416;19.402;2022-07-15T14:48:20;5.47;;;1.77;;
63050;SDS011;49136;47.416;19.402;2022-07-15T14:50:46;7.63;;;2.00;;
63050;SDS011;49136;47.416;19.402;2022-07-15T14:53:11;12.20;;;1.95;;
63050;SDS011;49136;47.416;19.402;2022-07-15T14:55:37;5.43;;;2.25;;
63050;SDS011;49136;47.416;19.402;2022-07-15T14:58:02;4.13;;;2.00;;
63050;SDS011;49136;47.416;19.402;2022-07-15T15:00:29;5.18;;;1.70;;
63050;SDS011;49136;47.416;19.402;2022-07-15T15:02:55;3.78;;;2.03;;
63050;SDS011;49136;47.416;19.402;2022-07-15T15:05:20;3.42;;;1.67;;
63050;SDS011;49136;47.416;19.402;2022-07-15T15:07:46;9.43;;;1.80;;
63050;SDS011;49136;47.416;19.402;2022-07-15T15:10:11;6.22;;;1.50;;
63050;SDS011;49136;47.416;19.402;2022-07-15T15:12:38;2.88;;;1.48;;
63050;SDS011;49136;47.416;19.402;2022-07-15T15:15:04;1.75;;;1.40;;
63050;SDS011;49136;47.416;19.402;2022-07-15T15:17:30;2.30;;;1.33;;
63050;SDS011;49136;47.416;19.402;2022-07-15T15:19:55;6.60;;;1.50;;
63050;SDS011;49136;47.416;19.402;2022-07-15T15:22:21;3.30;;;1.58;;
63050;SDS011;49136;47.416;19.402;2022-07-15T15:24:46;3.35;;;1.90;;
63050;SDS011;49136;47.416;19.402;2022-07-15T15:27:12;4.20;;;1.45;;
63050;SDS011;49136;47.416;19.402;2022-07-15T15:29:37;3.28;;;1.63;;